WetterOnline ( https://www.wetteronline.at )

Wetter aktuell Friesoythe

Aktuelles Wetter: Friesoythe-Altenoythe (6m)

6-stündlich | Neueste Meldungen
Ortszeit Temperatur Wetter
So, 15.09. 20:00 14.5° C bedeckt
So, 15.09. 14:00 19.1° C bedeckt
So, 15.09. 8:00 9.6° C -
So, 15.09. 2:00 6.1° C -
Sa, 14.09. 20:00 12.6° C wolkig
Sa, 14.09. 14:00 17.8° C wolkig
Sa, 14.09. 8:00 5.6° C leicht bewölkt
Sa, 14.09. 2:00 6.3° C wolkenlos
Ortszeit Temperatur Wetter
Mo, 16.09. 0:00 12.2° C bewölkt
So, 15.09. 23:50 12.2° C bewölkt
So, 15.09. 23:40 12.3° C wolkig
So, 15.09. 23:30 12.3° C bedeckt
So, 15.09. 23:20 12.3° C bedeckt
So, 15.09. 23:10 12.3° C bedeckt
So, 15.09. 23:00 12.6° C bedeckt
So, 15.09. 22:30 12.4° C bedeckt
So, 15.09. 22:00 12.9° C wolkig
So, 15.09. 21:30 13.3° C bedeckt
Ortszeit Relative Feuchte Sichtweite
So, 15.09. 20:00 90% 28 km
So, 15.09. 14:00 73% 45 km
So, 15.09. 8:00 83% 45 km
So, 15.09. 2:00 97% 22 km
Sa, 14.09. 20:00 90% 65 km
Sa, 14.09. 14:00 61% 55 km
Sa, 14.09. 8:00 98% 19 km
Sa, 14.09. 2:00 97% 45 km
Ortszeit Relative Feuchte Sichtweite
Mo, 16.09. 0:00 93% 19 km
So, 15.09. 23:50 93% -
So, 15.09. 23:40 92% -
So, 15.09. 23:30 92% 21 km
So, 15.09. 23:20 92% -
So, 15.09. 23:10 92% -
So, 15.09. 23:00 90% 20 km
So, 15.09. 22:30 91% 21 km
So, 15.09. 22:00 91% 21 km
So, 15.09. 21:30 91% 24 km
Ortszeit Niederschlagsmenge Niederschlagsart
So, 15.09. 20:00 0.2 l/m2 in 12 Std. Regen
So, 15.09. 14:00 0.0 l/m2 in 6 Std. -
So, 15.09. 8:00 0.0 l/m2 in 12 Std. -
So, 15.09. 2:00 0.0 l/m2 in 6 Std. -
Sa, 14.09. 20:00 0.0 l/m2 in 12 Std. -
Sa, 14.09. 14:00 0.0 l/m2 in 6 Std. -
Sa, 14.09. 8:00 0.0 l/m2 in 12 Std. -
Sa, 14.09. 2:00 0.0 l/m2 in 6 Std. -
Ortszeit Niederschlagsmenge Niederschlagsart
Mo, 16.09. 0:00 0.0 l/m2 in 1 Std. -
So, 15.09. 23:50 keine Meldung -
So, 15.09. 23:40 keine Meldung -
So, 15.09. 23:30 0.0 l/m2 in 1 Std. -
So, 15.09. 23:20 keine Meldung -
So, 15.09. 23:10 keine Meldung -
So, 15.09. 23:00 0.0 l/m2 in 1 Std. -
So, 15.09. 22:30 0.0 l/m2 in 1 Std. -
So, 15.09. 22:00 0.0 l/m2 in 1 Std. -
So, 15.09. 21:30 0.0 l/m2 in 1 Std. -
Ortszeit Stärke Spitze Richtung
km/h Bft. km/h Grad Sektor
So, 15.09. 20:00 11 2 40 270° W
So, 15.09. 14:00 19 3 41 270° W
So, 15.09. 8:00 7 2 18 230° SW
So, 15.09. 2:00 6 1 7 200° S
Sa, 14.09. 20:00 0 0 18 - -
Sa, 14.09. 14:00 7 2 14 300° NW
Sa, 14.09. 8:00 4 1 7 180° S
Sa, 14.09. 2:00 2 1 6 280° W
Ortszeit Stärke Spitze Richtung
km/h Bft. km/h Grad Sektor
Mo, 16.09. 0:00 7 2 11 260° W
So, 15.09. 23:50 7 2 - 260° W
So, 15.09. 23:40 7 2 - 260° W
So, 15.09. 23:30 7 2 7 270° W
So, 15.09. 23:20 7 2 - 270° W
So, 15.09. 23:10 6 1 - 270° W
So, 15.09. 23:00 7 2 11 250° W
So, 15.09. 22:30 7 2 11 260° W
So, 15.09. 22:00 7 2 14 270° W
So, 15.09. 21:30 7 2 14 250° W
Ortszeit Untergrenze Bedeckung Gattung
total tief tief mittel hoch
So, 15.09. 20:00 1440 m 8/8 8/8 - - -
So, 15.09. 14:00 750 m 8/8 8/8 - - -
So, 15.09. 8:00 - - - - - -
So, 15.09. 2:00 - - - - - -
Sa, 14.09. 20:00 9000 m 8/8 0/8 - - -
Sa, 14.09. 14:00 1140 m 6/8 6/8 - - -
Sa, 14.09. 8:00 9000 m 5/8 0/8 - - -
Sa, 14.09. 2:00 - 0/8 0/8 - - -
Ortszeit Bedeckungsgrad in Achtel und Wolkenuntergrenze
Mo, 16.09. 0:00 4(1800m) 8(4800m) 8(5400m)
So, 15.09. 23:50 4(1800m) 8(4800m) 8(5400m)
So, 15.09. 23:40 2(2100m) 8(4500m) 8(5400m)
So, 15.09. 23:30 4(3000m) 8(4500m)
So, 15.09. 23:20 4(3000m) 8(4500m)
So, 15.09. 23:10 2(3000m) 8(4200m) 8(6000m)
So, 15.09. 23:00 1(3000m) 8(4200m) 8(6000m)
So, 15.09. 22:30 4(3300m) 8(4800m) 8(8100m)
So, 15.09. 22:00 1(750m) 7(4800m) 8(7200m)
So, 15.09. 21:30 8(5400m) 8(7500m) 8(7500m)
Ortszeit Luftdruck NN (hPa) Tendenz (hPa in 3 Std.)
So, 15.09. 20:00 1021 + 0,4
So, 15.09. 14:00 1021 - 0,3
So, 15.09. 8:00 1022 - 1,3
So, 15.09. 2:00 1026 - 2,6
Sa, 14.09. 20:00 1030 - 1,6
Sa, 14.09. 14:00 1034 - 1,4
Sa, 14.09. 8:00 1035 - 0,1
Sa, 14.09. 2:00 1036 + 0,2
Ortszeit Luftdruck NN (hPa) Tendenz (hPa in 3 Std.)
Mo, 16.09. 0:00 1021 + 0,4
So, 15.09. 23:50 1021 keine Meldung
So, 15.09. 23:40 1021 keine Meldung
So, 15.09. 23:30 1021 0,0
So, 15.09. 23:20 1021 keine Meldung
So, 15.09. 23:10 1021 keine Meldung
So, 15.09. 23:00 1021 + 0,2
So, 15.09. 22:30 1021 + 0,1
So, 15.09. 22:00 1021 + 0,3
So, 15.09. 21:30 1021 - 0,1
Ortszeit Schneehöhe (cm)
So, 15.09. 20:00 -
So, 15.09. 14:00 -
So, 15.09. 8:00 -
So, 15.09. 2:00 -
Sa, 14.09. 20:00 -
Sa, 14.09. 14:00 -
Sa, 14.09. 8:00 -
Sa, 14.09. 2:00 -
Ortszeit Schneehöhe (cm)
Mo, 16.09. 0:00 -
So, 15.09. 23:50 -
So, 15.09. 23:40 -
So, 15.09. 23:30 -
So, 15.09. 23:20 -
So, 15.09. 23:10 -
So, 15.09. 23:00 -
So, 15.09. 22:30 -
So, 15.09. 22:00 -
So, 15.09. 21:30 -
Link zu dieser Seite / Seite empfehlen

Das Wetter in ...